sensor_id;sensor_type;location;lat;lon;timestamp;pressure;altitude;pressure_sealevel;temperature;humidity
1077;BME280;64114;48.726;9.370;2022-10-23T00:00:39;98838.03;;;12.18;100.00
1077;BME280;64114;48.726;9.370;2022-10-23T00:03:07;98834.56;;;12.05;100.00
1077;BME280;64114;48.726;9.370;2022-10-23T00:05:38;98826.88;;;12.11;100.00
1077;BME280;64114;48.726;9.370;2022-10-23T00:08:06;98821.72;;;12.01;100.00
1077;BME280;64114;48.726;9.370;2022-10-23T00:10:39;98810.56;;;11.87;100.00
1077;BME280;64114;48.726;9.370;2022-10-23T00:13:07;98808.88;;;11.84;100.00
1077;BME280;64114;48.726;9.370;2022-10-23T00:15:35;98789.16;;;11.82;100.00
1077;BME280;64114;48.726;9.370;2022-10-23T00:18:04;98802.88;;;11.92;100.00
1077;BME280;64114;48.726;9.370;2022-10-23T00:20:32;98759.19;;;11.64;100.00
1077;BME280;64114;48.726;9.370;2022-10-23T00:23:00;98790.00;;;11.84;100.00
1077;BME280;64114;48.726;9.370;2022-10-23T00:25:28;98794.31;;;11.85;100.00
1077;BME280;64114;48.726;9.370;2022-10-23T00:27:57;98790.84;;;11.77;100.00
1077;BME280;64114;48.726;9.370;2022-10-23T00:30:25;98800.28;;;11.70;100.00
1077;BME280;64114;48.726;9.370;2022-10-23T00:32:54;98799.44;;;11.80;100.00
1077;BME280;64114;48.726;9.370;2022-10-23T00:35:22;98805.31;;;11.36;100.00
1077;BME280;64114;48.726;9.370;2022-10-23T00:37:50;98818.88;;;11.10;100.00
1077;BME280;64114;48.726;9.370;2022-10-23T00:40:18;98824.88;;;11.12;100.00
1077;BME280;64114;48.726;9.370;2022-10-23T00:42:46;98824.13;;;11.36;100.00
1077;BME280;64114;48.726;9.370;2022-10-23T00:45:19;98814.72;;;11.38;100.00
1077;BME280;64114;48.726;9.370;2022-10-23T00:47:48;98819.91;;;11.46;100.00
1077;BME280;64114;48.726;9.370;2022-10-23T00:50:18;98816.47;;;11.47;100.00
1077;BME280;64114;48.726;9.370;2022-10-23T00:52:48;98819.91;;;11.46;100.00
1077;BME280;64114;48.726;9.370;2022-10-23T00:55:20;98808.75;;;11.42;100.00
1077;BME280;64114;48.726;9.370;2022-10-23T00:57:50;98792.47;;;11.36;100.00
1077;BME280;64114;48.726;9.370;2022-10-23T01:00:22;98809.66;;;11.52;100.00
1077;BME280;64114;48.726;9.370;2022-10-23T01:02:51;98801.97;;;11.65;100.00
1077;BME280;64114;48.726;9.370;2022-10-23T01:05:24;98801.06;;;11.49;100.00
1077;BME280;64114;48.726;9.370;2022-10-23T01:07:55;98788.19;;;11.35;100.00
1077;BME280;64114;48.726;9.370;2022-10-23T01:10:31;98787.41;;;11.61;100.00
1077;BME280;64114;48.726;9.370;2022-10-23T01:13:05;98813.06;;;11.53;100.00
1077;BME280;64114;48.726;9.370;2022-10-23T01:15:42;98809.59;;;11.41;100.00
1077;BME280;64114;48.726;9.370;2022-10-23T01:18:16;98803.63;;;11.52;100.00
1077;BME280;64114;48.726;9.370;2022-10-23T01:20:52;98786.47;;;11.27;100.00
1077;BME280;64114;48.726;9.370;2022-10-23T01:23:36;98806.97;;;11.29;100.00
1077;BME280;64114;48.726;9.370;2022-10-23T01:26:20;98811.25;;;11.22;100.00
1077;BME280;64114;48.726;9.370;2022-10-23T01:28:55;98799.25;;;11.17;100.00
1077;BME280;64114;48.726;9.370;2022-10-23T01:31:29;98803.50;;;11.16;100.00
1077;BME280;64114;48.726;9.370;2022-10-23T01:34:06;98800.94;;;11.13;100.00
1077;BME280;64114;48.726;9.370;2022-10-23T01:36:40;98792.38;;;11.14;100.00
1077;BME280;64114;48.726;9.370;2022-10-23T01:39:13;98790.69;;;11.15;100.00
1077;BME280;64114;48.726;9.370;2022-10-23T01:41:45;98764.09;;;10.94;100.00
1077;BME280;64114;48.726;9.370;2022-10-23T01:44:25;98790.66;;;11.13;100.00
1077;BME280;64114;48.726;9.370;2022-10-23T01:46:56;98785.53;;;11.13;100.00
1077;BME280;64114;48.726;9.370;2022-10-23T01:49:27;98781.28;;;11.13;100.00
1077;BME280;64114;48.726;9.370;2022-10-23T01:52:01;98772.72;;;11.11;100.00
1077;BME280;64114;48.726;9.370;2022-10-23T01:54:31;98770.19;;;11.30;100.00
1077;BME280;64114;48.726;9.370;2022-10-23T01:57:01;98766.75;;;11.17;100.00
1077;BME280;64114;48.726;9.370;2022-10-23T01:59:37;98773.63;;;11.23;100.00
1077;BME280;64114;48.726;9.370;2022-10-23T02:02:08;98744.53;;;11.24;100.00
1077;BME280;64114;48.726;9.370;2022-10-23T02:04:46;98772.75;;;11.30;100.00
1077;BME280;64114;48.726;9.370;2022-10-23T02:07:16;98769.31;;;11.17;100.00
1077;BME280;64114;48.726;9.370;2022-10-23T02:09:44;98762.38;;;10.94;100.00
1077;BME280;64114;48.726;9.370;2022-10-23T02:12:16;98753.81;;;10.95;100.00
1077;BME280;64114;48.726;9.370;2022-10-23T02:14:51;98764.13;;;11.02;100.00
1077;BME280;64114;48.726;9.370;2022-10-23T02:17:30;98749.53;;;10.88;100.00
1077;BME280;64114;48.726;9.370;2022-10-23T02:20:09;98731.56;;;10.87;100.00
1077;BME280;64114;48.726;9.370;2022-10-23T02:22:48;98748.75;;;11.06;100.00
1077;BME280;64114;48.726;9.370;2022-10-23T02:25:26;98751.31;;;11.11;100.00
1077;BME280;64114;48.726;9.370;2022-10-23T02:27:57;98745.28;;;10.95;100.00
1077;BME280;64114;48.726;9.370;2022-10-23T02:30:40;98752.91;;;10.81;100.00
1077;BME280;64114;48.726;9.370;2022-10-23T02:33:12;98751.22;;;10.81;100.00
1077;BME280;64114;48.726;9.370;2022-10-23T02:35:41;98747.00;;;10.93;100.00
1077;BME280;64114;48.726;9.370;2022-10-23T02:38:29;98741.16;;;11.36;100.00
1077;BME280;64114;48.726;9.370;2022-10-23T02:41:05;98735.13;;;11.31;100.00
1077;BME280;64114;48.726;9.370;2022-10-23T02:43:44;98741.09;;;11.19;100.00
1077;BME280;64114;48.726;9.370;2022-10-23T02:46:20;98728.19;;;11.02;100.00
1077;BME280;64114;48.726;9.370;2022-10-23T02:48:56;98722.19;;;10.92;100.00
1077;BME280;64114;48.726;9.370;2022-10-23T02:51:32;98708.47;;;10.83;100.00
1077;BME280;64114;48.726;9.370;2022-10-23T02:54:05;98721.34;;;10.96;100.00
1077;BME280;64114;48.726;9.370;2022-10-23T02:56:43;98709.38;;;10.95;100.00
1077;BME280;64114;48.726;9.370;2022-10-23T02:59:20;98709.38;;;10.92;100.00
1077;BME280;64114;48.726;9.370;2022-10-23T03:01:57;98705.13;;;10.97;100.00
1077;BME280;64114;48.726;9.370;2022-10-23T03:04:30;98703.41;;;10.96;100.00
1077;BME280;64114;48.726;9.370;2022-10-23T03:07:00;98710.28;;;11.06;100.00
1077;BME280;64114;48.726;9.370;2022-10-23T03:09:29;98690.56;;;10.93;100.00
1077;BME280;64114;48.726;9.370;2022-10-23T03:11:57;98670.91;;;11.03;100.00
1077;BME280;64114;48.726;9.370;2022-10-23T03:14:25;98702.56;;;11.08;100.00
1077;BME280;64114;48.726;9.370;2022-10-23T03:16:55;98694.88;;;11.00;100.00
1077;BME280;64114;48.726;9.370;2022-10-23T03:19:24;98713.72;;;11.11;100.00
1077;BME280;64114;48.726;9.370;2022-10-23T03:21:54;98712.78;;;10.98;100.00
1077;BME280;64114;48.726;9.370;2022-10-23T03:24:23;98707.63;;;10.88;100.00
1077;BME280;64114;48.726;9.370;2022-10-23T03:26:51;98688.75;;;10.72;100.00
1077;BME280;64114;48.726;9.370;2022-10-23T03:29:28;98697.34;;;10.75;100.00
1077;BME280;64114;48.726;9.370;2022-10-23T03:31:57;98668.19;;;10.58;100.00
1077;BME280;64114;48.726;9.370;2022-10-23T03:34:25;98703.31;;;10.74;100.00
1077;BME280;64114;48.726;9.370;2022-10-23T03:36:53;98704.16;;;10.78;100.00
1077;BME280;64114;48.726;9.370;2022-10-23T03:39:21;98687.94;;;10.74;100.00
1077;BME280;64114;48.726;9.370;2022-10-23T03:41:50;98693.09;;;10.80;100.00
1077;BME280;64114;48.726;9.370;2022-10-23T03:44:19;98673.41;;;10.81;100.00
1077;BME280;64114;48.726;9.370;2022-10-23T03:46:48;98696.50;;;10.87;100.00
1077;BME280;64114;48.726;9.370;2022-10-23T03:49:17;98696.53;;;10.96;100.00
1077;BME280;64114;48.726;9.370;2022-10-23T03:51:45;98690.56;;;10.93;100.00
1077;BME280;64114;48.726;9.370;2022-10-23T03:54:21;98690.56;;;10.94;100.00
1077;BME280;64114;48.726;9.370;2022-10-23T03:56:49;98679.47;;;10.97;100.00
1077;BME280;64114;48.726;9.370;2022-10-23T03:59:24;98657.22;;;10.96;100.00
1077;BME280;64114;48.726;9.370;2022-10-23T04:01:52;98677.75;;;11.04;100.00
1077;BME280;64114;48.726;9.370;2022-10-23T04:04:24;98680.34;;;11.05;100.00
1077;BME280;64114;48.726;9.370;2022-10-23T04:06:52;98658.13;;;11.07;100.00
1077;BME280;64114;48.726;9.370;2022-10-23T04:09:21;98676.94;;;11.28;100.00
1077;BME280;64114;48.726;9.370;2022-10-23T04:11:49;98682.06;;;11.17;100.00
1077;BME280;64114;48.726;9.370;2022-10-23T04:14:17;98670.94;;;11.07;100.00
1077;BME280;64114;48.726;9.370;2022-10-23T04:16:45;98675.19;;;11.07;100.00
1077;BME280;64114;48.726;9.370;2022-10-23T04:19:13;98678.69;;;11.26;100.00
1077;BME280;64114;48.726;9.370;2022-10-23T04:21:44;98694.06;;;11.31;100.00
1077;BME280;64114;48.726;9.370;2022-10-23T04:24:12;98685.47;;;11.08;100.00
1077;BME280;64114;48.726;9.370;2022-10-23T04:26:41;98679.44;;;10.98;100.00
1077;BME280;64114;48.726;9.370;2022-10-23T04:29:09;98658.88;;;10.78;100.00
1077;BME280;64114;48.726;9.370;2022-10-23T04:31:37;98660.59;;;10.84;100.00
1077;BME280;64114;48.726;9.370;2022-10-23T04:34:05;98694.94;;;11.26;100.00
1077;BME280;64114;48.726;9.370;2022-10-23T04:36:34;98694.94;;;11.22;100.00
1077;BME280;64114;48.726;9.370;2022-10-23T04:39:09;98694.03;;;11.15;100.00
1077;BME280;64114;48.726;9.370;2022-10-23T04:41:37;98691.50;;;11.23;100.00
1077;BME280;64114;48.726;9.370;2022-10-23T04:44:05;98680.41;;;11.35;100.00
1077;BME280;64114;48.726;9.370;2022-10-23T04:46:36;98688.94;;;11.41;100.00
1077;BME280;64114;48.726;9.370;2022-10-23T04:49:05;98694.09;;;11.40;100.00
1077;BME280;64114;48.726;9.370;2022-10-23T04:51:51;98694.06;;;11.32;100.00
1077;BME280;64114;48.726;9.370;2022-10-23T04:54:59;98691.53;;;11.26;100.00
1077;BME280;64114;48.726;9.370;2022-10-23T04:57:31;98695.78;;;11.32;100.00
1077;BME280;64114;48.726;9.370;2022-10-23T05:00:04;98656.41;;;11.03;100.00
1077;BME280;64114;48.726;9.370;2022-10-23T05:02:43;98694.06;;;11.18;100.00
1077;BME280;64114;48.726;9.370;2022-10-23T05:05:15;98679.50;;;11.12;100.00
1077;BME280;64114;48.726;9.370;2022-10-23T05:07:54;98649.53;;;10.94;100.00
1077;BME280;64114;48.726;9.370;2022-10-23T05:10:38;98688.91;;;11.15;100.00
1077;BME280;64114;48.726;9.370;2022-10-23T05:13:12;98683.78;;;11.13;100.00
1077;BME280;64114;48.726;9.370;2022-10-23T05:15:41;98674.41;;;11.19;100.00
1077;BME280;64114;48.726;9.370;2022-10-23T05:18:11;98673.53;;;11.20;100.00
1077;BME280;64114;48.726;9.370;2022-10-23T05:20:44;98679.53;;;11.23;100.00
1077;BME280;64114;48.726;9.370;2022-10-23T05:23:13;98648.69;;;11.02;100.00
1077;BME280;64114;48.726;9.370;2022-10-23T05:25:53;98670.09;;;11.11;100.00
1077;BME280;64114;48.726;9.370;2022-10-23T05:28:21;98671.84;;;11.22;100.00
1077;BME280;64114;48.726;9.370;2022-10-23T05:30:50;98653.00;;;11.07;100.00
1077;BME280;64114;48.726;9.370;2022-10-23T05:33:23;98639.28;;;10.96;100.00
1077;BME280;64114;48.726;9.370;2022-10-23T05:35:51;98664.97;;;11.08;100.00
1077;BME280;64114;48.726;9.370;2022-10-23T05:38:21;98665.84;;;11.21;100.00
1077;BME280;64114;48.726;9.370;2022-10-23T05:40:50;98668.41;;;11.38;100.00
1077;BME280;64114;48.726;9.370;2022-10-23T05:43:21;98659.03;;;11.54;100.00
1077;BME280;64114;48.726;9.370;2022-10-23T05:45:55;98675.31;;;11.81;100.00
1077;BME280;64114;48.726;9.370;2022-10-23T05:48:48;98666.72;;;11.51;100.00
1077;BME280;64114;48.726;9.370;2022-10-23T05:51:35;98664.13;;;11.40;100.00
1077;BME280;64114;48.726;9.370;2022-10-23T05:54:19;98641.91;;;11.55;100.00
1077;BME280;64114;48.726;9.370;2022-10-23T05:56:57;98657.31;;;11.58;100.00
1077;BME280;64114;48.726;9.370;2022-10-23T05:59:43;98663.28;;;11.35;100.00
1077;BME280;64114;48.726;9.370;2022-10-23T06:02:29;98643.63;;;11.33;100.00
1077;BME280;64114;48.726;9.370;2022-10-23T06:05:07;98640.19;;;11.23;100.00
1077;BME280;64114;48.726;9.370;2022-10-23T06:07:40;98615.34;;;11.02;100.00
1077;BME280;64114;48.726;9.370;2022-10-23T06:10:10;98619.63;;;11.03;100.00
1077;BME280;64114;48.726;9.370;2022-10-23T06:12:42;98659.00;;;11.25;100.00
1077;BME280;64114;48.726;9.370;2022-10-23T06:15:15;98658.97;;;11.17;100.00
1077;BME280;64114;48.726;9.370;2022-10-23T06:17:59;98617.06;;;11.07;100.00
1077;BME280;64114;48.726;9.370;2022-10-23T06:20:29;98645.31;;;11.48;100.00
1077;BME280;64114;48.726;9.370;2022-10-23T06:23:05;98647.91;;;11.60;100.00
1077;BME280;64114;48.726;9.370;2022-10-23T06:26:04;98604.25;;;11.29;100.00
1077;BME280;64114;48.726;9.370;2022-10-23T06:28:41;98595.72;;;11.15;100.00
1077;BME280;64114;48.726;9.370;2022-10-23T06:31:12;98651.31;;;11.30;100.00
1077;BME280;64114;48.726;9.370;2022-10-23T06:33:41;98644.44;;;11.22;100.00
1077;BME280;64114;48.726;9.370;2022-10-23T06:36:09;98632.47;;;11.45;100.00
1077;BME280;64114;48.726;9.370;2022-10-23T06:38:40;98658.16;;;11.54;100.00
1077;BME280;64114;48.726;9.370;2022-10-23T06:41:12;98644.47;;;11.49;100.00
1077;BME280;64114;48.726;9.370;2022-10-23T06:43:46;98644.47;;;11.84;100.00
1077;BME280;64114;48.726;9.370;2022-10-23T06:46:25;98623.91;;;11.89;100.00
1077;BME280;64114;48.726;9.370;2022-10-23T06:49:02;98640.16;;;12.13;100.00
1077;BME280;64114;48.726;9.370;2022-10-23T06:51:36;98647.00;;;12.08;100.00
1077;BME280;64114;48.726;9.370;2022-10-23T06:54:10;98635.88;;;12.12;100.00
1077;BME280;64114;48.726;9.370;2022-10-23T06:57:01;98643.59;;;12.09;100.00
1077;BME280;64114;48.726;9.370;2022-10-23T06:59:38;98646.16;;;12.02;100.00
1077;BME280;64114;48.726;9.370;2022-10-23T07:02:09;98626.47;;;11.95;100.00
1077;BME280;64114;48.726;9.370;2022-10-23T07:04:38;98645.25;;;12.28;100.00
1077;BME280;64114;48.726;9.370;2022-10-23T07:07:13;98640.97;;;12.43;100.00
1077;BME280;64114;48.726;9.370;2022-10-23T07:09:44;98646.13;;;12.40;100.00
1077;BME280;64114;48.726;9.370;2022-10-23T07:12:19;98646.13;;;12.41;100.00
1077;BME280;64114;48.726;9.370;2022-10-23T07:14:53;98639.25;;;12.45;100.00
1077;BME280;64114;48.726;9.370;2022-10-23T07:17:23;98640.03;;;12.59;100.00
1077;BME280;64114;48.726;9.370;2022-10-23T07:19:51;98636.50;;;12.81;100.00
1077;BME280;64114;48.726;9.370;2022-10-23T07:22:19;98645.09;;;12.81;100.00
1077;BME280;64114;48.726;9.370;2022-10-23T07:24:53;98653.66;;;12.82;100.00
1077;BME280;64114;48.726;9.370;2022-10-23T07:27:26;98655.34;;;12.94;100.00
1077;BME280;64114;48.726;9.370;2022-10-23T07:29:56;98640.72;;;12.97;100.00
1077;BME280;64114;48.726;9.370;2022-10-23T07:32:29;98617.63;;;12.89;100.00
1077;BME280;64114;48.726;9.370;2022-10-23T07:35:15;98609.81;;;13.03;100.00
1077;BME280;64114;48.726;9.370;2022-10-23T07:37:57;98641.44;;;13.26;100.00
1077;BME280;64114;48.726;9.370;2022-10-23T07:40:29;98636.16;;;13.44;100.00
1077;BME280;64114;48.726;9.370;2022-10-23T07:42:58;98632.78;;;13.31;100.00
1077;BME280;64114;48.726;9.370;2022-10-23T07:45:25;98645.53;;;13.52;100.00
1077;BME280;64114;48.726;9.370;2022-10-23T07:47:55;98642.13;;;13.46;100.00
1077;BME280;64114;48.726;9.370;2022-10-23T07:50:30;98653.16;;;13.67;100.00
1077;BME280;64114;48.726;9.370;2022-10-23T07:52:59;98655.72;;;13.66;100.00
1077;BME280;64114;48.726;9.370;2022-10-23T07:55:37;98621.59;;;13.40;100.00
1077;BME280;64114;48.726;9.370;2022-10-23T07:58:11;98659.72;;;13.99;100.00
1077;BME280;64114;48.726;9.370;2022-10-23T08:00:43;98606.66;;;13.78;100.00
1077;BME280;64114;48.726;9.370;2022-10-23T08:03:28;98647.63;;;14.12;100.00
1077;BME280;64114;48.726;9.370;2022-10-23T08:05:59;98644.03;;;14.26;100.00
1077;BME280;64114;48.726;9.370;2022-10-23T08:08:29;98632.03;;;14.25;100.00
1077;BME280;64114;48.726;9.370;2022-10-23T08:11:01;98576.56;;;13.83;100.00
1077;BME280;64114;48.726;9.370;2022-10-23T08:13:37;98581.66;;;13.89;100.00
1077;BME280;64114;48.726;9.370;2022-10-23T08:16:05;98635.34;;;14.34;100.00
1077;BME280;64114;48.726;9.370;2022-10-23T08:18:56;98619.59;;;14.58;99.64
1077;BME280;64114;48.726;9.370;2022-10-23T08:21:24;98607.81;;;14.36;100.00
1077;BME280;64114;48.726;9.370;2022-10-23T08:23:53;98558.91;;;14.29;100.00
1077;BME280;64114;48.726;9.370;2022-10-23T08:26:23;98478.63;;;13.86;99.21
1077;BME280;64114;48.726;9.370;2022-10-23T08:28:51;98308.78;;;13.02;97.39
1077;BME280;64114;48.726;9.370;2022-10-23T08:31:23;98471.28;;;14.26;96.64
1077;BME280;64114;48.726;9.370;2022-10-23T08:34:19;98486.66;;;14.35;96.38
1077;BME280;64114;48.726;9.370;2022-10-23T08:36:49;98576.78;;;15.08;97.09
1077;BME280;64114;48.726;9.370;2022-10-23T08:39:17;98587.41;;;15.46;94.88
1077;BME280;64114;48.726;9.370;2022-10-23T08:41:59;98581.81;;;15.69;94.93
1077;BME280;64114;48.726;9.370;2022-10-23T08:44:31;98581.66;;;15.80;93.65
1077;BME280;64114;48.726;9.370;2022-10-23T08:47:04;98509.31;;;15.27;94.48
1077;BME280;64114;48.726;9.370;2022-10-23T08:49:58;98577.53;;;15.68;94.04
1077;BME280;64114;48.726;9.370;2022-10-23T08:52:31;98576.66;;;15.71;94.41
1077;BME280;64114;48.726;9.370;2022-10-23T08:55:05;98581.81;;;15.69;94.43
1077;BME280;64114;48.726;9.370;2022-10-23T08:57:42;98568.06;;;15.69;94.07
1077;BME280;64114;48.726;9.370;2022-10-23T09:00:13;98557.81;;;15.64;93.69
1077;BME280;64114;48.726;9.370;2022-10-23T09:02:43;98573.13;;;15.75;93.76
1077;BME280;64114;48.726;9.370;2022-10-23T09:05:16;98582.66;;;15.72;94.34
1077;BME280;64114;48.726;9.370;2022-10-23T09:07:56;98581.81;;;15.71;95.05
1077;BME280;64114;48.726;9.370;2022-10-23T09:10:44;98575.31;;;15.97;93.33
1077;BME280;64114;48.726;9.370;2022-10-23T09:13:34;98537.59;;;15.87;92.22
1077;BME280;64114;48.726;9.370;2022-10-23T09:16:14;98573.22;;;16.18;92.86
1077;BME280;64114;48.726;9.370;2022-10-23T09:18:45;98566.69;;;16.42;90.96
1077;BME280;64114;48.726;9.370;2022-10-23T09:21:15;98563.72;;;16.61;90.28
1077;BME280;64114;48.726;9.370;2022-10-23T09:23:43;98559.94;;;16.77;88.72
1077;BME280;64114;48.726;9.370;2022-10-23T09:26:13;98561.22;;;16.97;86.83
1077;BME280;64114;48.726;9.370;2022-10-23T09:28:45;98564.19;;;17.18;86.34
1077;BME280;64114;48.726;9.370;2022-10-23T09:31:14;98566.38;;;17.35;85.12
1077;BME280;64114;48.726;9.370;2022-10-23T09:33:53;98564.41;;;17.44;84.57
1077;BME280;64114;48.726;9.370;2022-10-23T09:36:23;98545.31;;;17.49;84.16
1077;BME280;64114;48.726;9.370;2022-10-23T09:38:54;98515.22;;;17.43;82.61
1077;BME280;64114;48.726;9.370;2022-10-23T09:41:27;98541.06;;;17.79;82.04
1077;BME280;64114;48.726;9.370;2022-10-23T09:44:05;98543.44;;;17.88;80.96
1077;BME280;64114;48.726;9.370;2022-10-23T09:46:39;98527.44;;;18.04;80.59
1077;BME280;64114;48.726;9.370;2022-10-23T09:49:15;98523.53;;;18.21;80.14
1077;BME280;64114;48.726;9.370;2022-10-23T09:52:03;98526.84;;;18.26;79.58
1077;BME280;64114;48.726;9.370;2022-10-23T09:54:32;98505.53;;;18.44;79.25
1077;BME280;64114;48.726;9.370;2022-10-23T09:57:20;98478.78;;;18.42;78.72
1077;BME280;64114;48.726;9.370;2022-10-23T09:59:50;98510.00;;;18.69;77.80
1077;BME280;64114;48.726;9.370;2022-10-23T10:02:26;98504.53;;;18.77;77.37
1077;BME280;64114;48.726;9.370;2022-10-23T10:05:21;98470.44;;;18.61;77.58
1077;BME280;64114;48.726;9.370;2022-10-23T10:07:56;98517.09;;;18.91;75.97
1077;BME280;64114;48.726;9.370;2022-10-23T10:10:28;98527.19;;;19.02;75.99
1077;BME280;64114;48.726;9.370;2022-10-23T10:13:05;98523.66;;;19.04;76.04
1077;BME280;64114;48.726;9.370;2022-10-23T10:15:46;98497.66;;;19.04;76.10
1077;BME280;64114;48.726;9.370;2022-10-23T10:18:19;98528.66;;;19.11;76.63
1077;BME280;64114;48.726;9.370;2022-10-23T10:21:11;98523.47;;;19.09;77.17
1077;BME280;64114;48.726;9.370;2022-10-23T10:23:46;98511.09;;;19.17;76.97
1077;BME280;64114;48.726;9.370;2022-10-23T10:26:27;98518.88;;;19.44;76.33
1077;BME280;64114;48.726;9.370;2022-10-23T10:29:06;98505.44;;;19.57;74.18
1077;BME280;64114;48.726;9.370;2022-10-23T10:31:47;98506.50;;;19.76;73.85
1077;BME280;64114;48.726;9.370;2022-10-23T10:34:27;98495.28;;;20.00;73.11
1077;BME280;64114;48.726;9.370;2022-10-23T10:36:57;98497.06;;;19.98;72.36
1077;BME280;64114;48.726;9.370;2022-10-23T10:39:46;98493.47;;;20.26;71.99
1077;BME280;64114;48.726;9.370;2022-10-23T10:42:43;98490.97;;;20.46;71.14
1077;BME280;64114;48.726;9.370;2022-10-23T10:45:26;98486.75;;;20.66;70.91
1077;BME280;64114;48.726;9.370;2022-10-23T10:48:12;98468.81;;;20.80;70.59
1077;BME280;64114;48.726;9.370;2022-10-23T10:51:20;98456.38;;;20.87;70.19
1077;BME280;64114;48.726;9.370;2022-10-23T10:54:09;98428.63;;;20.86;69.51
1077;BME280;64114;48.726;9.370;2022-10-23T10:56:43;98464.78;;;20.94;69.04
1077;BME280;64114;48.726;9.370;2022-10-23T10:59:15;98469.78;;;21.00;68.21
1077;BME280;64114;48.726;9.370;2022-10-23T11:01:51;98434.03;;;20.81;68.33
1077;BME280;64114;48.726;9.370;2022-10-23T11:04:29;98464.25;;;21.08;68.43
1077;BME280;64114;48.726;9.370;2022-10-23T11:07:00;98475.53;;;21.08;69.52
1077;BME280;64114;48.726;9.370;2022-10-23T11:09:34;98469.38;;;20.87;70.36
1077;BME280;64114;48.726;9.370;2022-10-23T11:12:03;98469.19;;;20.71;71.15
1077;BME280;64114;48.726;9.370;2022-10-23T11:14:32;98453.00;;;21.07;70.02
1077;BME280;64114;48.726;9.370;2022-10-23T11:17:06;98454.03;;;21.45;69.31
1077;BME280;64114;48.726;9.370;2022-10-23T11:19:39;98415.84;;;21.44;68.72
1077;BME280;64114;48.726;9.370;2022-10-23T11:22:15;98438.13;;;21.70;68.09
1077;BME280;64114;48.726;9.370;2022-10-23T11:25:02;98397.59;;;21.63;67.51
1077;BME280;64114;48.726;9.370;2022-10-23T11:27:51;98433.25;;;21.83;67.35
1077;BME280;64114;48.726;9.370;2022-10-23T11:30:30;98415.31;;;21.75;67.80
1077;BME280;64114;48.726;9.370;2022-10-23T11:36:39;98408.47;;;21.73;68.01
1077;BME280;64114;48.726;9.370;2022-10-23T11:39:16;98407.06;;;21.65;68.38
1077;BME280;64114;48.726;9.370;2022-10-23T11:41:56;98400.28;;;21.61;68.50
1077;BME280;64114;48.726;9.370;2022-10-23T11:44:40;98402.25;;;21.56;69.16
1077;BME280;64114;48.726;9.370;2022-10-23T11:47:26;98396.41;;;21.51;69.85
1077;BME280;64114;48.726;9.370;2022-10-23T11:50:13;98360.63;;;21.34;70.42
1077;BME280;64114;48.726;9.370;2022-10-23T11:52:53;98388.72;;;21.48;70.66
1077;BME280;64114;48.726;9.370;2022-10-23T11:55:39;98371.00;;;21.35;70.78
1077;BME280;64114;48.726;9.370;2022-10-23T11:58:26;98386.88;;;21.50;71.31
1077;BME280;64114;48.726;9.370;2022-10-23T12:01:02;98385.88;;;21.52;71.33
1077;BME280;64114;48.726;9.370;2022-10-23T12:03:41;98381.13;;;21.62;70.35
1077;BME280;64114;48.726;9.370;2022-10-23T12:06:21;98341.63;;;21.51;69.86
1077;BME280;64114;48.726;9.370;2022-10-23T12:08:53;98326.03;;;21.49;70.21
1077;BME280;64114;48.726;9.370;2022-10-23T12:11:28;98371.13;;;21.91;69.08
1077;BME280;64114;48.726;9.370;2022-10-23T12:14:24;98332.06;;;21.90;68.14
1077;BME280;64114;48.726;9.370;2022-10-23T12:16:54;98369.63;;;22.24;67.44
1077;BME280;64114;48.726;9.370;2022-10-23T12:19:24;98362.88;;;22.37;66.85
1077;BME280;64114;48.726;9.370;2022-10-23T12:21:54;98330.16;;;22.30;66.90
1077;BME280;64114;48.726;9.370;2022-10-23T12:24:53;98346.81;;;22.45;65.94
1077;BME280;64114;48.726;9.370;2022-10-23T12:27:29;98353.22;;;22.57;64.54
1077;BME280;64114;48.726;9.370;2022-10-23T12:30:11;98351.16;;;22.64;63.97
1077;BME280;64114;48.726;9.370;2022-10-23T12:32:55;98324.88;;;22.49;63.76
1077;BME280;64114;48.726;9.370;2022-10-23T12:35:48;98314.97;;;22.56;63.10
1077;BME280;64114;48.726;9.370;2022-10-23T12:38:24;98334.56;;;22.82;62.58
1077;BME280;64114;48.726;9.370;2022-10-23T12:41:03;98325.19;;;22.78;62.21
1077;BME280;64114;48.726;9.370;2022-10-23T12:43:35;98333.13;;;22.94;61.83
1077;BME280;64114;48.726;9.370;2022-10-23T12:46:26;98324.97;;;23.00;62.06
1077;BME280;64114;48.726;9.370;2022-10-23T12:48:57;98278.63;;;22.86;61.89
1077;BME280;64114;48.726;9.370;2022-10-23T12:51:27;98304.84;;;23.19;61.84
1077;BME280;64114;48.726;9.370;2022-10-23T12:53:56;98293.88;;;23.12;61.42
1077;BME280;64114;48.726;9.370;2022-10-23T12:56:25;98305.63;;;23.37;61.09
1077;BME280;64114;48.726;9.370;2022-10-23T12:58:58;98304.41;;;23.60;60.53
1077;BME280;64114;48.726;9.370;2022-10-23T13:01:28;98290.56;;;23.74;60.17
1077;BME280;64114;48.726;9.370;2022-10-23T13:04:04;98284.41;;;23.75;60.08
1077;BME280;64114;48.726;9.370;2022-10-23T13:06:35;98291.28;;;23.28;60.96
1077;BME280;64114;48.726;9.370;2022-10-23T13:09:05;98283.25;;;23.15;62.37
1077;BME280;64114;48.726;9.370;2022-10-23T13:11:48;98273.16;;;23.57;61.48
1077;BME280;64114;48.726;9.370;2022-10-23T13:14:33;98252.00;;;23.78;61.68
1077;BME280;64114;48.726;9.370;2022-10-23T13:17:08;98224.31;;;23.73;61.90
1077;BME280;64114;48.726;9.370;2022-10-23T13:19:38;98222.19;;;23.80;61.18
1077;BME280;64114;48.726;9.370;2022-10-23T13:22:17;98260.75;;;24.09;60.59
1077;BME280;64114;48.726;9.370;2022-10-23T13:24:46;98253.53;;;24.12;60.66
1077;BME280;64114;48.726;9.370;2022-10-23T13:27:24;98261.72;;;24.22;60.04
1077;BME280;64114;48.726;9.370;2022-10-23T13:29:53;98260.34;;;24.31;59.16
1077;BME280;64114;48.726;9.370;2022-10-23T13:32:23;98216.22;;;24.09;59.46
1077;BME280;64114;48.726;9.370;2022-10-23T13:34:54;98259.09;;;24.22;60.00
1077;BME280;64114;48.726;9.370;2022-10-23T13:37:35;98241.72;;;24.05;60.71
1077;BME280;64114;48.726;9.370;2022-10-23T13:40:06;98246.56;;;23.97;60.88
1077;BME280;64114;48.726;9.370;2022-10-23T13:42:35;98235.28;;;23.80;61.16
1077;BME280;64114;48.726;9.370;2022-10-23T13:45:09;98220.34;;;23.82;60.87
1077;BME280;64114;48.726;9.370;2022-10-23T13:47:42;98252.00;;;23.78;60.95